createdAt,value
2022-07-29T00:01:48.479Z,18.90
2022-07-29T00:04:36.145Z,18.80
2022-07-29T00:07:21.759Z,18.80
2022-07-29T00:10:07.467Z,18.90
2022-07-29T00:12:52.893Z,18.80
2022-07-29T00:15:38.949Z,18.80
2022-07-29T00:18:24.229Z,18.80
2022-07-29T00:21:09.649Z,18.80
2022-07-29T00:23:55.271Z,18.70
2022-07-29T00:26:40.628Z,18.70
2022-07-29T00:29:34.679Z,18.70
2022-07-29T00:32:20.676Z,18.60
2022-07-29T00:35:25.255Z,18.60
2022-07-29T00:38:18.665Z,18.50
2022-07-29T00:41:03.995Z,18.50
2022-07-29T00:43:49.339Z,18.50
2022-07-29T00:46:34.848Z,18.40
2022-07-29T00:49:20.260Z,18.40
2022-07-29T00:52:06.355Z,18.50
2022-07-29T00:54:51.926Z,19.30
2022-07-29T00:57:38.218Z,18.40
2022-07-29T01:00:27.051Z,18.40
2022-07-29T01:03:12.974Z,18.40
2022-07-29T01:05:58.627Z,18.40
2022-07-29T01:08:44.409Z,18.30
2022-07-29T01:11:29.801Z,18.30
2022-07-29T01:14:16.776Z,18.30
2022-07-29T01:17:11.446Z,18.30
2022-07-29T01:20:00.218Z,18.30
2022-07-29T01:23:16.387Z,18.30
2022-07-29T01:26:20.697Z,18.30
2022-07-29T01:29:08.494Z,18.40
2022-07-29T01:32:04.757Z,18.40
2022-07-29T01:34:55.365Z,18.30
2022-07-29T01:37:48.428Z,18.20
2022-07-29T01:40:45.922Z,18.30
2022-07-29T01:43:41.356Z,18.30
2022-07-29T01:46:38.130Z,18.20
2022-07-29T01:49:28.961Z,18.10
2022-07-29T01:52:22.790Z,18.20
2022-07-29T01:55:14.508Z,18.10
2022-07-29T01:58:01.988Z,18.00
2022-07-29T02:00:49.159Z,18.00
2022-07-29T02:03:36.660Z,18.00
2022-07-29T02:06:24.131Z,18.00
2022-07-29T02:09:11.065Z,18.10
2022-07-29T02:11:57.822Z,18.20
2022-07-29T02:14:48.352Z,18.20
2022-07-29T02:17:44.487Z,18.20
2022-07-29T02:20:31.485Z,18.20
2022-07-29T02:23:20.679Z,18.10
2022-07-29T02:26:07.161Z,18.10
2022-07-29T02:28:56.255Z,18.00
2022-07-29T02:31:44.469Z,18.00
2022-07-29T02:34:31.149Z,17.90
2022-07-29T02:37:18.335Z,17.90
2022-07-29T02:40:05.053Z,17.90
2022-07-29T02:42:50.919Z,17.80
2022-07-29T02:45:36.414Z,17.80
2022-07-29T02:48:33.235Z,17.70
2022-07-29T02:51:42.613Z,17.70
2022-07-29T02:54:54.664Z,17.70
2022-07-29T02:57:55.071Z,17.80
2022-07-29T03:00:42.293Z,17.80
2022-07-29T03:03:32.764Z,17.90
2022-07-29T03:06:31.100Z,17.80
2022-07-29T03:09:24.900Z,17.80
2022-07-29T03:12:11.502Z,17.80
2022-07-29T03:14:57.408Z,17.90
2022-07-29T03:17:43.893Z,17.90
2022-07-29T03:20:29.183Z,17.80
2022-07-29T03:23:20.916Z,17.80
2022-07-29T03:26:06.634Z,17.80
2022-07-29T03:28:52.033Z,17.90
2022-07-29T03:31:37.474Z,17.90
2022-07-29T03:34:23.492Z,17.80
2022-07-29T03:37:08.842Z,17.80
2022-07-29T03:39:57.247Z,17.80
2022-07-29T03:42:44.489Z,17.80
2022-07-29T03:45:32.043Z,17.70
2022-07-29T03:48:20.823Z,17.80
2022-07-29T03:51:06.768Z,17.80
2022-07-29T03:53:53.301Z,17.80
2022-07-29T03:56:44.184Z,17.80
2022-07-29T03:59:31.500Z,17.70
2022-07-29T04:02:21.882Z,17.80
2022-07-29T04:05:13.764Z,17.80
2022-07-29T04:07:58.818Z,17.80
2022-07-29T04:10:44.428Z,17.70
2022-07-29T04:13:29.819Z,17.70
2022-07-29T04:16:15.417Z,17.60
2022-07-29T04:19:01.099Z,17.60
2022-07-29T04:21:46.404Z,17.60
2022-07-29T04:24:31.822Z,17.60
2022-07-29T04:27:17.355Z,17.80
2022-07-29T04:30:03.102Z,17.90
2022-07-29T04:32:48.279Z,17.90
2022-07-29T04:35:43.620Z,19.30
2022-07-29T04:38:33.352Z,18.00
2022-07-29T04:41:18.695Z,18.00
2022-07-29T04:44:07.046Z,17.90
2022-07-29T04:46:52.613Z,17.90
2022-07-29T04:49:40.997Z,17.90
2022-07-29T04:52:26.528Z,17.80
2022-07-29T04:55:12.023Z,17.70
2022-07-29T04:57:57.405Z,17.70
2022-07-29T05:00:43.898Z,17.80
2022-07-29T05:03:29.089Z,17.90
2022-07-29T05:06:14.612Z,16.90
2022-07-29T05:08:59.995Z,18.10
2022-07-29T05:11:45.339Z,18.20
2022-07-29T05:14:31.462Z,18.20
2022-07-29T05:17:16.717Z,18.30
2022-07-29T05:20:02.310Z,18.30
2022-07-29T05:22:47.704Z,18.40
2022-07-29T05:25:43.054Z,18.50
2022-07-29T05:28:29.679Z,18.50
2022-07-29T05:31:15.618Z,18.60
2022-07-29T05:34:01.671Z,18.70
2022-07-29T05:36:47.232Z,18.80
2022-07-29T05:39:46.658Z,18.80
2022-07-29T05:42:35.150Z,18.90
2022-07-29T05:45:20.243Z,18.90
2022-07-29T05:48:05.792Z,19.00
2022-07-29T05:50:51.191Z,19.20
2022-07-29T05:53:36.697Z,19.20
2022-07-29T05:56:22.100Z,18.60
2022-07-29T05:59:07.581Z,19.30
2022-07-29T06:02:05.978Z,19.20
2022-07-29T06:04:51.668Z,19.40
2022-07-29T06:07:37.364Z,19.50
2022-07-29T06:10:26.248Z,19.50
2022-07-29T06:13:13.292Z,19.70
2022-07-29T06:15:58.494Z,19.60
2022-07-29T06:18:44.639Z,19.60
2022-07-29T06:21:30.090Z,21.50
2022-07-29T06:24:16.747Z,19.40
2022-07-29T06:27:02.391Z,19.70
2022-07-29T06:29:47.839Z,19.80
2022-07-29T06:32:33.765Z,19.80
2022-07-29T06:35:38.920Z,19.80
2022-07-29T06:38:33.791Z,19.80
2022-07-29T06:41:19.576Z,19.50
2022-07-29T06:44:05.651Z,19.40
2022-07-29T06:46:52.490Z,19.30
2022-07-29T06:49:38.203Z,19.30
2022-07-29T06:52:23.669Z,19.30
2022-07-29T06:55:09.481Z,19.40
2022-07-29T06:57:55.061Z,19.30
2022-07-29T07:00:40.489Z,19.40
2022-07-29T07:03:26.176Z,19.40
2022-07-29T07:06:14.985Z,19.40
2022-07-29T07:09:00.749Z,19.40
2022-07-29T07:11:46.215Z,19.50
2022-07-29T07:14:35.302Z,19.60
2022-07-29T07:17:20.758Z,19.60
2022-07-29T07:20:07.307Z,19.90
2022-07-29T07:22:54.149Z,20.10
2022-07-29T07:25:39.637Z,20.20
2022-07-29T07:28:25.335Z,20.40
2022-07-29T07:31:11.564Z,20.40
2022-07-29T07:33:56.962Z,20.60
2022-07-29T07:36:42.515Z,20.20
2022-07-29T07:39:27.708Z,20.20
2022-07-29T07:42:13.905Z,20.20
2022-07-29T07:45:13.147Z,20.00
2022-07-29T07:47:59.655Z,20.20
2022-07-29T07:50:45.161Z,20.20
2022-07-29T07:53:31.395Z,20.20
2022-07-29T07:56:18.145Z,20.20
2022-07-29T07:59:03.466Z,20.10
2022-07-29T08:01:55.370Z,20.10
2022-07-29T08:04:41.886Z,20.00
2022-07-29T08:07:27.143Z,20.20
2022-07-29T08:10:13.535Z,20.40
2022-07-29T08:12:58.861Z,20.30
2022-07-29T08:15:46.027Z,20.20
2022-07-29T08:18:32.334Z,20.10
2022-07-29T08:21:18.240Z,20.10
2022-07-29T08:24:22.967Z,20.20
2022-07-29T08:27:26.933Z,20.30
2022-07-29T08:30:14.148Z,18.80
2022-07-29T08:32:59.863Z,20.20
2022-07-29T08:35:46.579Z,20.40
2022-07-29T08:38:31.960Z,20.40
2022-07-29T08:41:19.864Z,20.40
2022-07-29T08:44:05.923Z,20.10
2022-07-29T08:46:51.819Z,20.20
2022-07-29T08:49:38.363Z,20.00
2022-07-29T08:52:26.776Z,19.70
2022-07-29T08:55:12.412Z,19.80
2022-07-29T08:57:58.350Z,20.20
2022-07-29T09:00:49.787Z,20.40
2022-07-29T09:03:37.823Z,20.40
2022-07-29T09:06:26.904Z,20.60
2022-07-29T09:09:12.935Z,20.70
2022-07-29T09:12:00.701Z,20.90
2022-07-29T09:14:46.166Z,21.00
2022-07-29T09:17:42.847Z,21.30
2022-07-29T09:20:48.198Z,21.40
2022-07-29T09:23:33.510Z,21.60
2022-07-29T09:26:18.928Z,21.80
2022-07-29T09:29:19.418Z,22.10
2022-07-29T09:32:10.395Z,22.20
2022-07-29T09:35:19.510Z,22.20
2022-07-29T09:38:12.605Z,22.00
2022-07-29T09:41:05.574Z,22.20
2022-07-29T09:43:59.258Z,22.20
2022-07-29T09:47:08.212Z,22.10
2022-07-29T09:49:59.155Z,22.00
2022-07-29T09:52:52.907Z,22.10
2022-07-29T09:55:52.016Z,21.90
2022-07-29T09:58:37.483Z,21.80
2022-07-29T10:01:31.840Z,21.90
2022-07-29T10:04:17.334Z,21.70
2022-07-29T10:07:05.458Z,21.60
2022-07-29T10:09:57.729Z,21.40
2022-07-29T10:12:54.281Z,21.30
2022-07-29T10:15:44.154Z,21.20
2022-07-29T10:18:30.358Z,21.30
2022-07-29T10:21:34.972Z,21.40
2022-07-29T10:24:22.295Z,21.60
2022-07-29T10:27:09.207Z,21.50
2022-07-29T10:29:55.223Z,21.40
2022-07-29T10:33:06.252Z,21.20
2022-07-29T10:36:21.072Z,21.50
2022-07-29T10:39:18.230Z,21.40
2022-07-29T10:42:29.539Z,21.50
2022-07-29T10:45:20.361Z,21.60
2022-07-29T10:48:07.966Z,21.90
2022-07-29T10:51:04.981Z,22.00
2022-07-29T10:53:53.966Z,22.00
2022-07-29T10:56:41.258Z,22.20
2022-07-29T10:59:36.327Z,22.20
2022-07-29T11:02:42.602Z,22.00
2022-07-29T11:05:40.777Z,22.20
2022-07-29T11:08:28.033Z,22.10
2022-07-29T11:14:52.940Z,22.20
2022-07-29T11:18:05.266Z,22.20
2022-07-29T11:20:55.777Z,22.40
2022-07-29T11:23:44.461Z,22.40
2022-07-29T11:26:31.299Z,22.30
2022-07-29T11:29:23.196Z,22.20
2022-07-29T11:32:18.248Z,23.50
2022-07-29T11:35:19.150Z,22.00
2022-07-29T11:38:23.472Z,22.40
2022-07-29T11:41:26.071Z,22.80
2022-07-29T11:44:12.840Z,22.70
2022-07-29T11:47:04.519Z,23.10
2022-07-29T11:49:53.016Z,23.00
2022-07-29T11:52:49.835Z,23.40
2022-07-29T11:55:51.541Z,24.10
2022-07-29T11:58:38.263Z,24.40
2022-07-29T12:01:25.492Z,23.90
2022-07-29T12:04:13.754Z,24.00
2022-07-29T12:07:00.479Z,24.60
2022-07-29T12:09:53.564Z,24.60
2022-07-29T12:12:42.439Z,25.10
2022-07-29T12:15:31.488Z,25.40
2022-07-29T12:18:32.538Z,25.60
2022-07-29T12:21:18.001Z,25.40
2022-07-29T12:24:05.709Z,25.80
2022-07-29T12:26:57.235Z,26.00
2022-07-29T12:29:48.799Z,25.70
2022-07-29T12:32:36.654Z,25.90
2022-07-29T12:35:22.263Z,26.10
2022-07-29T12:38:07.798Z,26.20
2022-07-29T12:40:54.927Z,27.00
2022-07-29T12:43:53.783Z,27.30
2022-07-29T12:46:39.597Z,27.40
2022-07-29T12:49:25.042Z,26.90
2022-07-29T12:52:32.131Z,27.50
2022-07-29T12:55:37.377Z,27.70
2022-07-29T12:58:38.131Z,27.80
2022-07-29T13:01:23.835Z,27.50
2022-07-29T13:04:09.374Z,27.30
2022-07-29T13:07:08.206Z,27.40
2022-07-29T13:09:55.145Z,27.50
2022-07-29T13:12:41.934Z,28.10
2022-07-29T13:15:27.302Z,28.20
2022-07-29T13:18:33.519Z,28.30
2022-07-29T13:21:18.973Z,28.00
2022-07-29T13:24:06.806Z,28.00
2022-07-29T13:26:52.750Z,27.90
2022-07-29T13:29:41.065Z,28.30
2022-07-29T13:32:29.130Z,28.20
2022-07-29T13:35:15.095Z,28.30
2022-07-29T13:38:00.583Z,28.60
2022-07-29T13:40:46.127Z,28.60
2022-07-29T13:43:31.395Z,28.90
2022-07-29T13:46:16.836Z,29.40
2022-07-29T13:49:02.232Z,28.90
2022-07-29T13:51:47.473Z,28.50
2022-07-29T13:54:33.051Z,28.40
2022-07-29T13:57:18.545Z,28.30
2022-07-29T14:00:04.565Z,28.00
2022-07-29T14:02:53.772Z,28.40
2022-07-29T14:05:39.246Z,28.50
2022-07-29T14:08:24.632Z,28.90
2022-07-29T14:11:10.210Z,29.40
2022-07-29T14:13:55.437Z,29.10
2022-07-29T14:16:44.558Z,28.90
2022-07-29T14:19:36.926Z,28.50
2022-07-29T14:22:23.101Z,28.50
2022-07-29T14:25:15.061Z,28.10
2022-07-29T14:28:00.650Z,28.80
2022-07-29T14:30:46.277Z,28.60
2022-07-29T14:33:31.689Z,28.50
2022-07-29T14:36:17.224Z,28.50
2022-07-29T14:39:02.696Z,28.30
2022-07-29T14:41:47.984Z,27.90
2022-07-29T14:44:33.532Z,27.70
2022-07-29T14:47:18.871Z,27.90
2022-07-29T14:50:05.390Z,27.30
2022-07-29T14:52:50.851Z,27.80
2022-07-29T14:55:36.438Z,27.70
2022-07-29T14:58:23.587Z,27.70
2022-07-29T15:01:09.096Z,27.60
2022-07-29T15:03:59.321Z,27.70
2022-07-29T15:06:45.361Z,27.70
2022-07-29T15:09:30.748Z,27.70
2022-07-29T15:12:16.525Z,27.40
2022-07-29T15:15:02.079Z,27.10
2022-07-29T15:17:49.190Z,27.00
2022-07-29T15:20:35.005Z,27.00
2022-07-29T15:23:20.530Z,26.80
2022-07-29T15:26:05.827Z,26.90
2022-07-29T15:28:51.428Z,26.70
2022-07-29T15:31:36.919Z,26.70
2022-07-29T15:34:24.108Z,26.50
2022-07-29T15:37:09.291Z,26.70
2022-07-29T15:39:59.675Z,26.70
2022-07-29T15:42:45.543Z,26.70
2022-07-29T15:46:03.084Z,26.40
2022-07-29T15:48:48.824Z,26.50
2022-07-29T15:51:34.383Z,26.50
2022-07-29T15:54:19.913Z,26.60
2022-07-29T15:57:07.667Z,26.40
2022-07-29T15:59:53.132Z,26.30
2022-07-29T16:02:38.493Z,26.20
2022-07-29T16:05:23.983Z,26.30
2022-07-29T16:08:09.418Z,26.30
2022-07-29T16:10:54.870Z,26.30
2022-07-29T16:13:40.747Z,26.30
2022-07-29T16:16:26.749Z,26.20
2022-07-29T16:19:12.478Z,26.30
2022-07-29T16:21:59.887Z,26.30
2022-07-29T16:24:45.628Z,26.40
2022-07-29T16:27:35.545Z,26.30
2022-07-29T16:30:23.794Z,26.20
2022-07-29T16:33:10.181Z,26.20
2022-07-29T16:35:55.489Z,26.20
2022-07-29T16:38:47.291Z,26.20
2022-07-29T16:41:32.654Z,26.20
2022-07-29T16:44:18.206Z,26.10
2022-07-29T16:47:03.683Z,26.00
2022-07-29T16:49:50.215Z,25.90
2022-07-29T16:52:35.982Z,25.80
2022-07-29T16:55:21.317Z,25.70
2022-07-29T16:58:06.948Z,25.70
2022-07-29T17:00:52.510Z,25.80
2022-07-29T17:04:00.268Z,25.90
2022-07-29T17:06:46.335Z,25.80
2022-07-29T17:09:32.551Z,25.70
2022-07-29T17:12:17.784Z,25.70
2022-07-29T17:15:05.162Z,25.60
2022-07-29T17:17:56.633Z,25.50
2022-07-29T17:20:42.661Z,25.40
2022-07-29T17:23:27.930Z,25.40
2022-07-29T17:26:13.644Z,25.30
2022-07-29T17:28:58.692Z,25.20
2022-07-29T17:31:44.227Z,25.20
2022-07-29T17:34:29.498Z,25.10
2022-07-29T17:37:14.877Z,25.10
2022-07-29T17:40:00.501Z,25.00
2022-07-29T17:42:45.810Z,24.90
2022-07-29T17:45:49.436Z,24.90
2022-07-29T17:48:36.674Z,24.70
2022-07-29T17:51:26.276Z,24.70
2022-07-29T17:54:11.616Z,24.60
2022-07-29T17:56:57.423Z,24.60
2022-07-29T17:59:42.960Z,24.60
2022-07-29T18:02:28.396Z,24.60
2022-07-29T18:05:13.997Z,24.60
2022-07-29T18:07:59.490Z,24.60
2022-07-29T18:10:46.000Z,24.60
2022-07-29T18:13:31.309Z,24.60
2022-07-29T18:16:16.585Z,24.50
2022-07-29T18:19:02.671Z,24.40
2022-07-29T18:21:54.438Z,24.50
2022-07-29T18:24:43.586Z,24.50
2022-07-29T18:27:28.785Z,24.50
2022-07-29T18:30:16.805Z,24.50
2022-07-29T18:36:11.548Z,24.40
2022-07-29T18:38:57.511Z,24.00
2022-07-29T18:41:49.782Z,22.60
2022-07-29T18:44:41.574Z,23.00
2022-07-29T18:47:32.129Z,21.70
2022-07-29T18:50:19.335Z,21.40
2022-07-29T18:53:04.868Z,21.20
2022-07-29T18:55:50.267Z,20.50
2022-07-29T18:58:37.098Z,18.80
2022-07-29T19:01:23.180Z,18.10
2022-07-29T19:04:17.660Z,18.00
2022-07-29T19:07:03.382Z,18.00
2022-07-29T19:09:49.178Z,18.10
2022-07-29T19:12:34.971Z,18.30
2022-07-29T19:15:20.767Z,18.40
2022-07-29T19:18:07.053Z,18.70
2022-07-29T19:20:52.246Z,18.80
2022-07-29T19:24:01.410Z,18.90
2022-07-29T19:26:46.743Z,18.90
2022-07-29T19:29:32.816Z,19.00
2022-07-29T19:32:24.985Z,19.00
2022-07-29T19:35:30.982Z,19.00
2022-07-29T19:38:16.627Z,19.00
2022-07-29T19:41:01.730Z,19.00
2022-07-29T19:43:51.555Z,19.00
2022-07-29T19:46:38.598Z,19.10
2022-07-29T19:49:24.122Z,19.00
2022-07-29T19:52:09.530Z,19.00
2022-07-29T19:54:55.168Z,19.00
2022-07-29T19:57:41.242Z,19.30
2022-07-29T20:00:27.462Z,19.40
2022-07-29T20:03:13.215Z,19.30
2022-07-29T20:05:59.965Z,19.30
2022-07-29T20:08:45.815Z,19.40
2022-07-29T20:11:32.212Z,19.40
2022-07-29T20:14:17.471Z,19.40
2022-07-29T20:17:03.507Z,19.40
2022-07-29T20:19:50.004Z,19.50
2022-07-29T20:22:36.599Z,19.50
2022-07-29T20:25:22.363Z,19.40
2022-07-29T20:28:07.678Z,19.40
2022-07-29T20:30:53.102Z,19.50
2022-07-29T20:33:38.441Z,19.60
2022-07-29T20:36:24.057Z,20.50
2022-07-29T20:39:09.645Z,19.50
2022-07-29T20:41:54.757Z,19.40
2022-07-29T20:44:40.080Z,19.30
2022-07-29T20:47:25.906Z,19.20
2022-07-29T20:50:11.599Z,19.10
2022-07-29T20:52:56.743Z,19.10
2022-07-29T20:55:42.538Z,19.10
2022-07-29T20:58:28.083Z,19.10
2022-07-29T21:01:13.672Z,19.10
2022-07-29T21:04:00.259Z,19.00
2022-07-29T21:06:45.359Z,19.10
2022-07-29T21:09:30.880Z,19.20
2022-07-29T21:12:17.254Z,19.40
2022-07-29T21:15:06.299Z,19.50
2022-07-29T21:17:59.460Z,19.30
2022-07-29T21:20:44.635Z,19.10
2022-07-29T21:23:30.728Z,19.10
2022-07-29T21:26:16.093Z,19.00
2022-07-29T21:29:01.611Z,18.90
2022-07-29T21:31:46.953Z,19.00
2022-07-29T21:34:32.462Z,19.00
2022-07-29T21:37:17.870Z,19.90
2022-07-29T21:40:03.810Z,20.10
2022-07-29T21:42:49.321Z,18.90
2022-07-29T21:45:36.470Z,18.90
2022-07-29T21:48:23.104Z,18.90
2022-07-29T21:51:08.524Z,18.90
2022-07-29T21:53:53.906Z,18.90
2022-07-29T21:56:40.261Z,18.90
2022-07-29T21:59:25.885Z,18.90
2022-07-29T22:02:11.225Z,18.80
2022-07-29T22:04:56.568Z,18.70
2022-07-29T22:07:55.978Z,18.70
2022-07-29T22:10:42.531Z,18.60
2022-07-29T22:13:27.965Z,18.50
2022-07-29T22:16:14.902Z,20.50
2022-07-29T22:19:00.187Z,18.40
2022-07-29T22:21:47.109Z,18.40
2022-07-29T22:24:32.277Z,18.40
2022-07-29T22:27:17.959Z,18.40
2022-07-29T22:30:05.707Z,18.30
2022-07-29T22:32:50.980Z,18.30
2022-07-29T22:35:36.551Z,18.30
2022-07-29T22:38:21.963Z,18.30
2022-07-29T22:41:07.407Z,18.30
2022-07-29T22:43:53.221Z,18.30
2022-07-29T22:46:39.035Z,18.40
2022-07-29T22:49:24.516Z,18.30
2022-07-29T22:52:10.083Z,18.40
2022-07-29T22:54:55.205Z,18.40
2022-07-29T22:57:40.895Z,18.40
2022-07-29T23:00:26.202Z,18.30
2022-07-29T23:03:11.601Z,16.60
2022-07-29T23:05:56.973Z,18.20
2022-07-29T23:08:42.757Z,18.10
2022-07-29T23:11:28.343Z,18.10
2022-07-29T23:14:13.670Z,18.00
2022-07-29T23:16:59.119Z,17.80
2022-07-29T23:19:45.687Z,17.90
2022-07-29T23:22:30.894Z,17.80
2022-07-29T23:25:16.227Z,17.80
2022-07-29T23:28:01.782Z,17.70
2022-07-29T23:30:47.096Z,17.70
2022-07-29T23:33:32.548Z,17.60
2022-07-29T23:36:20.100Z,17.50
2022-07-29T23:39:05.983Z,17.50
2022-07-29T23:41:51.530Z,17.40
2022-07-29T23:44:36.990Z,17.30
2022-07-29T23:47:22.509Z,17.30
2022-07-29T23:50:11.967Z,17.30
2022-07-29T23:52:57.619Z,17.20
2022-07-29T23:55:43.475Z,17.20
2022-07-29T23:58:28.930Z,17.10
